LOS ANGELES INTL

KLAX (LAX)
Los Angeles, California
Towered

Vatsim Metar:
KLAX 041753Z 25009KT 10SM FEW011 23/17 A3001 RMK AO2 SLP160 T02280167 10233 20167 51007 $

No ATC Online

Traffic

Inbound:
Ident
Type
Name
ETA
Phase
AMX1508
B737/L
Hugo Herrera MMMD
18:41 Z
Descent
SWA1668
B738/L
Jackson Scott KSLC
19:31 Z
Cruse
DAL1150
B739/L
Yoav Babnik LLBG
19:20 Z
Cruse
PAC218
H/B748/L
Guillermo Striddels KDCA
19:27 Z
Cruse
DAL1148
B752/Z
David Papp LHBP
Boarding
JBU101
A321/L
Eduardo Hart KJFK
19:50 Z
Cruse
DAL184
H/A333/L
Shayne Inniss TBPB
19:46 Z
Cruse
AAL1163
T/B738/F
Michael Vivian KBTR
21:19 Z
Climb
DLH452
H/A359/L
David EDDM
21:21 Z
Cruse
AAL375
H/B77L/L
Gus Roberts KLAX
22:02 Z
Cruse
UAL1167
H/B772/L
Ken Bonnett KI34
Boarding
KAL8213
H/B77L/L
TaeSung Lim CYYZ
00:04 Z
Cruse
KAL9213
H/B77L/L
Daniel Park YSSY
00:05 Z
Cruse
KAL213
H/B748/L
Jimin Park RKSI
00:09 Z
Cruse
UAE294
A388/L
Leo Koster
01:04 Z
Descent
QFA11
H/B744/L
Samraat Kadam KPHL
00:49 Z
Descent

Outbound:
Ident
Type
Name
Destination
Phase
DAL937
B739/L
Matthew Quick
MMUN
Boarding